Terminal Aerodrome Forecast
Issued by NWS Springfield, MO

Home | Current Version | Previous Version | Text Only | Print | Product List | Glossary On
Versions: 1 2 3 4 5 6 7 8 9 10 11 12 13 14 15 16 17 18 19 20 21 22 23
477
FTUS43 KSGF 192300
TAFSGF
TAF
KSGF 192333Z 2000/2024 05010KT P6SM BKN100
     FM200600 11012G18KT 6SM -RA BKN025 OVC050
     FM201000 12012G16KT 4SM -RA BR BKN007 OVC025
     FM202100 05010KT 4SM BR OVC010=

USA.gov is the U.S. government's official web portal to all federal, state and local government web resources and services.